Time;durP1;ratioP1;P1;durP2;ratioP2;P2;SDS_P1;SDS_P2;PMS_P1;PMS_P2;Temp;Humidity;BMP_temperature;BMP_pressure;BME280_temperature;BME280_humidity;BME280_pressure;Samples;Min_cycle;Max_cycle;Signal;HPM_P1;HPM_P2
2022/10/09 00:01:15;;;;;;;9.85;3.50;;;;;;;;;;5061777;28;20049;-67
2022/10/09 00:03:43;;;;;;;11.02;3.60;;;;;;;;;;5059080;28;20064;-67
2022/10/09 00:06:12;;;;;;;8.13;3.40;;;;;;;;;;5059622;28;20057;-67
2022/10/09 00:08:39;;;;;;;5.97;3.85;;;;;;;;;;5059969;28;20057;-67
2022/10/09 00:11:06;;;;;;;10.32;5.10;;;;;;;;;;5059446;28;20064;-67
2022/10/09 00:13:32;;;;;;;8.38;3.60;;;;;;;;;;5061104;28;20053;-67
2022/10/09 00:16:01;;;;;;;13.45;4.30;;;;;;;;;;5058582;28;20099;-67
2022/10/09 00:18:27;;;;;;;11.13;3.65;;;;;;;;;;5062021;28;20507;-67
2022/10/09 00:20:53;;;;;;;5.15;3.72;;;;;;;;;;5058887;28;20172;-67
2022/10/09 00:23:20;;;;;;;8.27;3.50;;;;;;;;;;5059244;28;20061;-67
2022/10/09 00:25:53;;;;;;;7.38;3.60;;;;;;;;;;5055223;28;20057;-67
2022/10/09 00:28:21;;;;;;;9.43;3.80;;;;;;;;;;5059139;28;20540;-68
2022/10/09 00:30:47;;;;;;;8.05;3.85;;;;;;;;;;5061955;28;20049;-67
2022/10/09 00:33:14;;;;;;;11.77;3.78;;;;;;;;;;5061485;28;20518;-66
2022/10/09 00:35:40;;;;;;;7.70;3.60;;;;;;;;;;5060714;28;20045;-67
2022/10/09 00:38:06;;;;;;;8.23;3.63;;;;;;;;;;5059266;28;20138;-67
2022/10/09 00:40:33;;;;;;;6.38;3.53;;;;;;;;;;5060426;28;20053;-67
2022/10/09 00:42:59;;;;;;;7.50;3.58;;;;;;;;;;5059591;28;20049;-68
2022/10/09 00:45:27;;;;;;;7.57;3.90;;;;;;;;;;5054816;28;20049;-67
2022/10/09 00:47:55;;;;;;;7.53;3.50;;;;;;;;;;5060589;28;20548;-67
2022/10/09 00:50:25;;;;;;;9.98;3.65;;;;;;;;;;5067517;28;20063;-67
2022/10/09 00:52:53;;;;;;;8.32;3.85;;;;;;;;;;5058875;28;20934;-67
2022/10/09 00:55:20;;;;;;;9.02;3.25;;;;;;;;;;5060339;28;20055;-67
2022/10/09 00:57:47;;;;;;;10.23;3.28;;;;;;;;;;5059102;28;20045;-67
2022/10/09 01:00:14;;;;;;;3.85;3.00;;;;;;;;;;5059891;28;20053;-67
2022/10/09 01:02:40;;;;;;;8.32;3.50;;;;;;;;;;5054523;28;20064;-67
2022/10/09 01:05:07;;;;;;;7.50;3.53;;;;;;;;;;5062561;28;20053;-67
2022/10/09 01:07:52;;;;;;;6.93;4.00;;;;;;;;;;5060540;28;20054;-67
2022/10/09 01:10:26;;;;;;;8.10;3.45;;;;;;;;;;5059327;28;20115;-67
2022/10/09 01:12:58;;;;;;;10.00;4.10;;;;;;;;;;5045455;28;20057;-67
2022/10/09 01:15:31;;;;;;;6.88;3.90;;;;;;;;;;5060005;28;20076;-67
2022/10/09 01:18:20;;;;;;;12.00;3.88;;;;;;;;;;5060046;28;20084;-67
2022/10/09 01:20:53;;;;;;;11.48;4.25;;;;;;;;;;5060938;28;20057;-68
2022/10/09 01:23:35;;;;;;;9.43;4.05;;;;;;;;;;5058536;28;20499;-67
2022/10/09 01:26:14;;;;;;;8.15;3.80;;;;;;;;;;5063041;28;20052;-67
2022/10/09 01:28:42;;;;;;;5.55;3.55;;;;;;;;;;5056873;28;20045;-67
2022/10/09 01:31:09;;;;;;;6.32;3.28;;;;;;;;;;5058620;28;20095;-67
2022/10/09 01:33:36;;;;;;;8.65;3.30;;;;;;;;;;5058281;28;20139;-67
2022/10/09 01:36:03;;;;;;;8.50;3.10;;;;;;;;;;5060633;28;20056;-67
2022/10/09 01:38:29;;;;;;;10.18;3.50;;;;;;;;;;5063271;28;20088;-67
2022/10/09 01:40:56;;;;;;;9.23;3.08;;;;;;;;;;5062902;28;20057;-68
2022/10/09 01:43:22;;;;;;;6.63;3.05;;;;;;;;;;5063333;28;20048;-67
2022/10/09 01:45:49;;;;;;;8.25;3.83;;;;;;;;;;5064081;28;20049;-68
2022/10/09 01:48:17;;;;;;;7.40;3.45;;;;;;;;;;5063278;28;20064;-67
2022/10/09 01:50:45;;;;;;;8.27;2.92;;;;;;;;;;5059488;28;20060;-67
2022/10/09 01:53:14;;;;;;;6.43;3.47;;;;;;;;;;5062982;28;20049;-67
2022/10/09 01:56:01;;;;;;;6.57;3.72;;;;;;;;;;5060110;28;20053;-67
2022/10/09 01:58:30;;;;;;;8.45;3.45;;;;;;;;;;5062190;28;20478;-68
2022/10/09 02:01:03;;;;;;;5.53;3.08;;;;;;;;;;5063137;28;20061;-67
2022/10/09 02:03:30;;;;;;;9.75;3.50;;;;;;;;;;5053368;28;20064;-68
2022/10/09 02:06:00;;;;;;;8.98;4.40;;;;;;;;;;5064576;28;20083;-68
2022/10/09 02:08:28;;;;;;;7.75;3.40;;;;;;;;;;5063791;28;20052;-67
2022/10/09 02:10:55;;;;;;;4.18;2.85;;;;;;;;;;5060296;28;20045;-67
2022/10/09 02:13:22;;;;;;;8.10;3.50;;;;;;;;;;5049395;28;20080;-67
2022/10/09 02:15:50;;;;;;;7.35;3.40;;;;;;;;;;5061583;28;20053;-67
2022/10/09 02:18:20;;;;;;;8.98;3.50;;;;;;;;;;5050106;28;20056;-67
2022/10/09 02:20:50;;;;;;;7.88;3.50;;;;;;;;;;5062795;28;20057;-67
2022/10/09 02:23:17;;;;;;;10.27;3.80;;;;;;;;;;5061950;28;20057;-67
2022/10/09 02:25:43;;;;;;;6.38;3.30;;;;;;;;;;5056408;28;20060;-67
2022/10/09 02:28:10;;;;;;;10.68;3.05;;;;;;;;;;5062669;28;20536;-67
2022/10/09 02:30:57;;;;;;;10.30;4.20;;;;;;;;;;5066097;28;20045;-67
2022/10/09 02:33:29;;;;;;;5.55;3.13;;;;;;;;;;5060847;28;21969;-67
2022/10/09 02:35:55;;;;;;;3.95;3.00;;;;;;;;;;5070620;28;20049;-67
2022/10/09 02:38:22;;;;;;;9.05;3.42;;;;;;;;;;5064141;28;20565;-68
2022/10/09 02:40:48;;;;;;;13.80;3.75;;;;;;;;;;5061416;28;20118;-67
2022/10/09 02:43:15;;;;;;;11.60;3.53;;;;;;;;;;5062841;28;20167;-67
2022/10/09 02:45:41;;;;;;;15.88;3.53;;;;;;;;;;5062433;28;20060;-67
2022/10/09 02:48:08;;;;;;;13.30;3.38;;;;;;;;;;5062348;28;20577;-67
2022/10/09 02:50:34;;;;;;;8.43;3.47;;;;;;;;;;5064088;28;20065;-67
2022/10/09 02:53:00;;;;;;;8.77;3.60;;;;;;;;;;5060917;28;20045;-67
2022/10/09 02:55:27;;;;;;;8.73;4.22;;;;;;;;;;5061384;28;20052;-67
2022/10/09 02:57:53;;;;;;;5.97;3.10;;;;;;;;;;5062703;28;20053;-67
2022/10/09 03:00:20;;;;;;;9.82;4.28;;;;;;;;;;5061462;28;20060;-67
2022/10/09 03:02:46;;;;;;;8.10;3.83;;;;;;;;;;5063300;28;20052;-67
2022/10/09 03:05:13;;;;;;;9.30;3.45;;;;;;;;;;5062166;28;20049;-67
2022/10/09 03:07:39;;;;;;;7.85;3.78;;;;;;;;;;5068170;28;20056;-67
2022/10/09 03:10:06;;;;;;;4.47;3.70;;;;;;;;;;5060451;28;20045;-67
2022/10/09 03:12:32;;;;;;;9.90;3.40;;;;;;;;;;5060434;28;20700;-67
2022/10/09 03:14:58;;;;;;;7.38;3.80;;;;;;;;;;5061759;28;20063;-67
2022/10/09 03:17:24;;;;;;;8.57;3.70;;;;;;;;;;5062363;28;20060;-67
2022/10/09 03:19:51;;;;;;;8.77;4.00;;;;;;;;;;5057194;28;20060;-67
2022/10/09 03:22:17;;;;;;;10.70;4.90;;;;;;;;;;5062776;28;20522;-67
2022/10/09 03:24:43;;;;;;;9.77;4.30;;;;;;;;;;5059969;28;20053;-67
2022/10/09 03:27:09;;;;;;;5.60;3.83;;;;;;;;;;5065103;28;20049;-67
2022/10/09 03:29:36;;;;;;;6.50;3.63;;;;;;;;;;5060157;28;20060;-67
2022/10/09 03:32:02;;;;;;;5.72;4.15;;;;;;;;;;5058879;28;20060;-67
2022/10/09 03:34:28;;;;;;;7.30;4.03;;;;;;;;;;5061501;28;20060;-67
2022/10/09 03:36:55;;;;;;;7.57;3.97;;;;;;;;;;5062521;28;20234;-67
2022/10/09 03:39:21;;;;;;;18.52;4.95;;;;;;;;;;5060427;28;20055;-67
2022/10/09 03:41:47;;;;;;;10.00;4.65;;;;;;;;;;5060659;28;20097;-67
2022/10/09 03:44:14;;;;;;;9.00;4.95;;;;;;;;;;5061141;28;20060;-67
2022/10/09 03:46:40;;;;;;;6.88;4.35;;;;;;;;;;5062539;28;20056;-67
2022/10/09 03:49:06;;;;;;;10.77;4.78;;;;;;;;;;5060449;28;20061;-67
2022/10/09 03:51:33;;;;;;;8.88;5.50;;;;;;;;;;5061067;28;20084;-67
2022/10/09 03:53:59;;;;;;;8.68;5.10;;;;;;;;;;5060447;28;20057;-67
2022/10/09 03:56:25;;;;;;;12.20;5.05;;;;;;;;;;5062533;28;20045;-68
2022/10/09 03:58:52;;;;;;;13.48;5.20;;;;;;;;;;5060490;28;20045;-68
2022/10/09 04:01:18;;;;;;;9.43;5.45;;;;;;;;;;5059684;28;20049;-67
2022/10/09 04:03:45;;;;;;;11.07;5.00;;;;;;;;;;5059822;28;20495;-67
2022/10/09 04:06:11;;;;;;;11.48;5.13;;;;;;;;;;5060851;28;20111;-67
2022/10/09 04:08:38;;;;;;;8.95;5.07;;;;;;;;;;5060765;28;20060;-67
2022/10/09 04:11:04;;;;;;;8.75;4.70;;;;;;;;;;5060483;28;20103;-67
2022/10/09 04:13:30;;;;;;;6.85;4.57;;;;;;;;;;5061082;28;20053;-67
2022/10/09 04:15:57;;;;;;;17.50;5.72;;;;;;;;;;5060450;28;20055;-67
2022/10/09 04:18:23;;;;;;;9.35;5.28;;;;;;;;;;5050404;28;20056;-68
2022/10/09 04:20:50;;;;;;;8.10;4.80;;;;;;;;;;5063744;28;20051;-67
2022/10/09 04:23:17;;;;;;;16.45;5.85;;;;;;;;;;5060316;28;20048;-67
2022/10/09 04:25:44;;;;;;;11.43;6.15;;;;;;;;;;5061709;28;20044;-70
2022/10/09 04:28:10;;;;;;;8.10;4.88;;;;;;;;;;5064473;28;20624;-67
2022/10/09 04:30:36;;;;;;;9.95;4.93;;;;;;;;;;5059379;28;20525;-68
2022/10/09 04:33:03;;;;;;;9.65;5.25;;;;;;;;;;5057967;28;20057;-67
2022/10/09 04:35:34;;;;;;;11.05;4.95;;;;;;;;;;5061874;28;20525;-67
2022/10/09 04:38:00;;;;;;;7.60;4.95;;;;;;;;;;5060325;28;20053;-67
2022/10/09 04:40:26;;;;;;;9.65;5.25;;;;;;;;;;5061653;28;20053;-67
2022/10/09 04:42:53;;;;;;;12.00;5.35;;;;;;;;;;5059059;28;20057;-67
2022/10/09 04:45:20;;;;;;;9.43;5.03;;;;;;;;;;5059046;28;20087;-67
2022/10/09 04:47:46;;;;;;;10.75;4.95;;;;;;;;;;5061371;28;20052;-67
2022/10/09 04:50:14;;;;;;;17.10;5.50;;;;;;;;;;5060769;28;20049;-67
2022/10/09 04:52:40;;;;;;;10.73;5.70;;;;;;;;;;5060257;28;20049;-67
2022/10/09 04:55:06;;;;;;;10.55;4.85;;;;;;;;;;5059315;28;20095;-68
2022/10/09 04:57:33;;;;;;;9.73;4.90;;;;;;;;;;5060481;28;20053;-67
2022/10/09 04:59:59;;;;;;;9.80;4.65;;;;;;;;;;5060014;28;20060;-67
2022/10/09 05:02:25;;;;;;;7.32;4.97;;;;;;;;;;5060877;28;20046;-67
2022/10/09 05:04:52;;;;;;;7.10;4.47;;;;;;;;;;5060033;28;20095;-67
2022/10/09 05:07:18;;;;;;;11.73;4.93;;;;;;;;;;5078388;28;20786;-67
2022/10/09 05:09:44;;;;;;;10.18;4.03;;;;;;;;;;5067176;28;20096;-67
2022/10/09 05:12:11;;;;;;;8.90;4.80;;;;;;;;;;5061183;28;20585;-67
2022/10/09 05:14:37;;;;;;;8.68;4.95;;;;;;;;;;5064539;28;20053;-67
2022/10/09 05:17:04;;;;;;;12.32;5.55;;;;;;;;;;5064067;28;20057;-67
2022/10/09 05:19:48;;;;;;;9.15;4.47;;;;;;;;;;5059884;28;20064;-68
2022/10/09 05:22:15;;;;;;;12.43;5.35;;;;;;;;;;5063754;28;20053;-67
2022/10/09 05:24:41;;;;;;;11.45;5.25;;;;;;;;;;5064395;28;20473;-68
2022/10/09 05:27:08;;;;;;;8.73;4.88;;;;;;;;;;5064850;28;20056;-67
2022/10/09 05:29:34;;;;;;;8.15;5.10;;;;;;;;;;5067821;28;20049;-67
2022/10/09 05:32:00;;;;;;;9.13;5.30;;;;;;;;;;5068764;28;20240;-67
2022/10/09 05:34:26;;;;;;;5.95;4.72;;;;;;;;;;5067001;28;20686;-67
2022/10/09 05:36:53;;;;;;;7.72;4.45;;;;;;;;;;5063053;28;20049;-67
2022/10/09 05:39:20;;;;;;;7.88;4.25;;;;;;;;;;5062700;28;20501;-67
2022/10/09 05:41:46;;;;;;;10.15;4.95;;;;;;;;;;5064213;28;20099;-67
2022/10/09 05:44:12;;;;;;;10.88;5.85;;;;;;;;;;5065274;28;20053;-68
2022/10/09 05:46:39;;;;;;;14.77;4.95;;;;;;;;;;5064056;28;20148;-67
2022/10/09 05:49:05;;;;;;;6.63;4.28;;;;;;;;;;5059433;28;20056;-67
2022/10/09 05:51:36;;;;;;;9.07;5.82;;;;;;;;;;5062661;28;20056;-67
2022/10/09 05:54:03;;;;;;;13.77;4.90;;;;;;;;;;5061109;28;20052;-67
2022/10/09 05:56:33;;;;;;;9.73;4.88;;;;;;;;;;5062957;28;20049;-67
2022/10/09 05:59:03;;;;;;;7.03;4.32;;;;;;;;;;5063925;28;20049;-67
2022/10/09 06:01:31;;;;;;;9.02;4.80;;;;;;;;;;5062621;28;20049;-67
2022/10/09 06:03:58;;;;;;;6.95;4.20;;;;;;;;;;5063168;28;20064;-67
2022/10/09 06:06:26;;;;;;;7.60;4.57;;;;;;;;;;5062186;28;20049;-67
2022/10/09 06:08:53;;;;;;;8.82;4.45;;;;;;;;;;5065060;28;20503;-67
2022/10/09 06:11:19;;;;;;;9.05;4.68;;;;;;;;;;5062197;28;20061;-67
2022/10/09 06:13:45;;;;;;;7.80;4.95;;;;;;;;;;5063024;28;20527;-67
2022/10/09 06:16:13;;;;;;;9.95;5.28;;;;;;;;;;5060757;28;20495;-68
2022/10/09 06:18:40;;;;;;;7.85;4.93;;;;;;;;;;5061711;28;20179;-67
2022/10/09 06:21:12;;;;;;;11.13;4.97;;;;;;;;;;5060147;28;20056;-67
2022/10/09 06:23:39;;;;;;;6.82;4.78;;;;;;;;;;5063162;28;20056;-67
2022/10/09 06:26:07;;;;;;;14.98;5.50;;;;;;;;;;5059661;28;20053;-67
2022/10/09 06:28:34;;;;;;;15.48;5.50;;;;;;;;;;5061866;28;20045;-67
2022/10/09 06:31:01;;;;;;;7.78;4.93;;;;;;;;;;5062634;28;20135;-67
2022/10/09 06:33:28;;;;;;;8.00;4.78;;;;;;;;;;5061767;28;20045;-68
2022/10/09 06:35:57;;;;;;;9.68;5.03;;;;;;;;;;5063361;28;20049;-67
2022/10/09 06:38:35;;;;;;;6.70;5.10;;;;;;;;;;5060623;28;20144;-67
2022/10/09 06:41:05;;;;;;;7.78;5.18;;;;;;;;;;5060210;28;20084;-67
2022/10/09 06:43:32;;;;;;;10.77;4.97;;;;;;;;;;5062855;28;20064;-67
2022/10/09 06:45:59;;;;;;;9.75;4.18;;;;;;;;;;5059913;28;20061;-67
2022/10/09 06:48:27;;;;;;;8.55;5.35;;;;;;;;;;5058328;28;20049;-66
2022/10/09 06:50:54;;;;;;;10.27;5.53;;;;;;;;;;5061191;28;20518;-67
2022/10/09 06:53:20;;;;;;;13.15;4.90;;;;;;;;;;5060773;28;20049;-67
2022/10/09 06:55:53;;;;;;;7.68;5.57;;;;;;;;;;5060379;28;20060;-67
2022/10/09 06:58:20;;;;;;;9.75;6.10;;;;;;;;;;5061126;28;20041;-67
2022/10/09 07:00:46;;;;;;;8.18;5.40;;;;;;;;;;5061370;28;20844;-67
2022/10/09 07:03:12;;;;;;;14.38;5.18;;;;;;;;;;5061747;28;20049;-67
2022/10/09 07:05:39;;;;;;;13.25;5.90;;;;;;;;;;5063168;28;20053;-67
2022/10/09 07:08:05;;;;;;;8.50;5.63;;;;;;;;;;5061703;28;20411;-67
2022/10/09 07:10:31;;;;;;;11.57;5.40;;;;;;;;;;5061928;28;20127;-67
2022/10/09 07:12:58;;;;;;;10.55;5.85;;;;;;;;;;5055982;28;20068;-67
2022/10/09 07:15:24;;;;;;;13.88;5.60;;;;;;;;;;5063011;28;20052;-66
2022/10/09 07:17:50;;;;;;;9.23;4.80;;;;;;;;;;5058868;28;20193;-67
2022/10/09 07:20:17;;;;;;;10.63;5.35;;;;;;;;;;5060497;28;20048;-67
2022/10/09 07:22:43;;;;;;;11.15;5.47;;;;;;;;;;5061282;28;20381;-67
2022/10/09 07:25:10;;;;;;;10.35;6.38;;;;;;;;;;5058844;28;20056;-67
2022/10/09 07:27:37;;;;;;;9.77;5.75;;;;;;;;;;5049800;28;20037;-67
2022/10/09 07:30:03;;;;;;;8.55;5.68;;;;;;;;;;5056366;28;20053;-67
2022/10/09 07:32:29;;;;;;;17.90;5.88;;;;;;;;;;5061474;28;20549;-67
2022/10/09 07:34:56;;;;;;;9.05;5.22;;;;;;;;;;5063188;28;20041;-67
2022/10/09 07:37:22;;;;;;;9.15;5.95;;;;;;;;;;5060829;28;20605;-67
2022/10/09 07:39:49;;;;;;;10.82;5.80;;;;;;;;;;5062911;28;20528;-67
2022/10/09 07:42:15;;;;;;;9.27;6.13;;;;;;;;;;5062099;28;20055;-66
2022/10/09 07:44:41;;;;;;;9.02;5.35;;;;;;;;;;5059923;28;20045;-67
2022/10/09 07:47:08;;;;;;;7.85;5.13;;;;;;;;;;5055855;28;20114;-67
2022/10/09 07:49:34;;;;;;;14.10;4.75;;;;;;;;;;5057348;28;20048;-67
2022/10/09 07:52:00;;;;;;;8.20;4.78;;;;;;;;;;5053892;28;21246;-67
2022/10/09 07:54:26;;;;;;;7.43;5.03;;;;;;;;;;5052654;28;20095;-67
2022/10/09 07:56:53;;;;;;;9.30;4.82;;;;;;;;;;5059068;28;20056;-66
2022/10/09 07:59:19;;;;;;;7.70;4.50;;;;;;;;;;5058794;28;20535;-67
2022/10/09 08:01:46;;;;;;;11.63;5.10;;;;;;;;;;5060804;28;20053;-67
2022/10/09 08:04:12;;;;;;;8.18;4.95;;;;;;;;;;5061759;28;20053;-67
2022/10/09 08:06:38;;;;;;;8.65;4.88;;;;;;;;;;5061161;28;20423;-67
2022/10/09 08:09:05;;;;;;;11.63;4.82;;;;;;;;;;5059587;28;20052;-67
2022/10/09 08:11:31;;;;;;;10.27;4.95;;;;;;;;;;5059714;28;20053;-67
2022/10/09 08:13:58;;;;;;;8.45;4.07;;;;;;;;;;5061906;28;20045;-67
2022/10/09 08:16:25;;;;;;;8.13;4.22;;;;;;;;;;5059944;28;20055;-67
2022/10/09 08:18:58;;;;;;;9.38;4.63;;;;;;;;;;5067211;28;20063;-67
2022/10/09 08:21:27;;;;;;;10.48;5.32;;;;;;;;;;5061733;28;20057;-67
2022/10/09 08:23:55;;;;;;;10.10;4.93;;;;;;;;;;5060884;28;20073;-67
2022/10/09 08:26:22;;;;;;;12.25;5.45;;;;;;;;;;5059802;28;20557;-67
2022/10/09 08:28:50;;;;;;;9.48;4.72;;;;;;;;;;5058532;28;20079;-67
2022/10/09 08:31:16;;;;;;;7.75;4.57;;;;;;;;;;5059050;28;20049;-67
2022/10/09 08:33:43;;;;;;;13.20;4.65;;;;;;;;;;5061216;28;20107;-67
2022/10/09 08:36:11;;;;;;;12.40;4.78;;;;;;;;;;5058845;28;20053;-66
2022/10/09 08:38:37;;;;;;;10.40;4.47;;;;;;;;;;5059535;28;20388;-67
2022/10/09 08:41:17;;;;;;;8.15;5.15;;;;;;;;;;5056351;28;20088;-67
2022/10/09 08:43:46;;;;;;;13.18;5.22;;;;;;;;;;5056553;28;20680;-67
2022/10/09 08:46:34;;;;;;;9.25;4.75;;;;;;;;;;5057315;28;20049;-67
2022/10/09 08:49:01;;;;;;;9.40;5.15;;;;;;;;;;5058579;28;20076;-67
2022/10/09 08:51:29;;;;;;;10.13;5.05;;;;;;;;;;5060697;28;20045;-67
2022/10/09 08:54:08;;;;;;;14.27;6.30;;;;;;;;;;5074252;28;20052;-66
2022/10/09 08:56:34;;;;;;;10.75;5.47;;;;;;;;;;5069692;28;20495;-67
2022/10/09 08:59:01;;;;;;;11.85;5.15;;;;;;;;;;5069466;28;20516;-67
2022/10/09 09:01:34;;;;;;;6.32;4.80;;;;;;;;;;5071101;28;20547;-71
2022/10/09 09:04:06;;;;;;;9.43;4.43;;;;;;;;;;5081755;28;20082;-67
2022/10/09 09:06:38;;;;;;;9.90;5.13;;;;;;;;;;5068900;28;20577;-67
2022/10/09 09:09:11;;;;;;;10.50;4.93;;;;;;;;;;5061633;28;20117;-67
2022/10/09 09:11:48;;;;;;;9.13;5.07;;;;;;;;;;5056623;28;20062;-67
2022/10/09 09:14:17;;;;;;;10.75;4.93;;;;;;;;;;5055657;28;20442;-67
2022/10/09 09:17:07;;;;;;;15.00;5.07;;;;;;;;;;5065829;28;20534;-66
2022/10/09 09:19:44;;;;;;;9.68;4.65;;;;;;;;;;5063671;28;20506;-67
2022/10/09 09:22:12;;;;;;;8.30;4.20;;;;;;;;;;5064707;28;20584;-66
2022/10/09 09:24:41;;;;;;;11.05;5.82;;;;;;;;;;5069025;28;20724;-66
2022/10/09 09:27:12;;;;;;;9.27;5.07;;;;;;;;;;5064894;28;20052;-67
2022/10/09 09:29:43;;;;;;;14.13;5.32;;;;;;;;;;5075379;28;20431;-66
2022/10/09 09:32:15;;;;;;;14.55;5.90;;;;;;;;;;5071852;28;20528;-67
2022/10/09 09:34:41;;;;;;;12.35;5.15;;;;;;;;;;5069837;28;20616;-66
2022/10/09 09:37:11;;;;;;;11.55;4.65;;;;;;;;;;5067152;28;20060;-67
2022/10/09 09:39:37;;;;;;;9.93;4.90;;;;;;;;;;5071630;28;20522;-66
2022/10/09 09:42:26;;;;;;;7.88;5.03;;;;;;;;;;5064256;28;20053;-66
2022/10/09 09:45:03;;;;;;;13.23;4.60;;;;;;;;;;5063111;28;20063;-66
2022/10/09 09:47:44;;;;;;;10.70;5.15;;;;;;;;;;5071044;28;20471;-67
2022/10/09 09:50:10;;;;;;;11.98;5.38;;;;;;;;;;5062652;28;20053;-67
2022/10/09 09:52:54;;;;;;;10.95;4.50;;;;;;;;;;5069588;28;20150;-66
2022/10/09 09:55:26;;;;;;;16.60;5.88;;;;;;;;;;5068936;28;20045;-66
2022/10/09 09:57:58;;;;;;;9.68;4.85;;;;;;;;;;5069392;28;20528;-67
2022/10/09 10:00:25;;;;;;;5.93;3.88;;;;;;;;;;5066418;28;20051;-66
2022/10/09 10:03:00;;;;;;;10.68;4.03;;;;;;;;;;5068818;28;20498;-66
2022/10/09 10:05:27;;;;;;;11.98;3.53;;;;;;;;;;5063902;28;20064;-67
2022/10/09 10:07:56;;;;;;;10.48;3.33;;;;;;;;;;5082189;28;20058;-68
2022/10/09 10:10:24;;;;;;;16.38;3.90;;;;;;;;;;5071870;28;20099;-67
2022/10/09 10:12:52;;;;;;;8.57;3.35;;;;;;;;;;5062815;28;20053;-67
2022/10/09 10:15:20;;;;;;;10.50;3.70;;;;;;;;;;5079613;28;20051;-66
2022/10/09 10:17:48;;;;;;;11.90;5.03;;;;;;;;;;5084589;28;20055;-67
2022/10/09 10:20:16;;;;;;;10.30;3.17;;;;;;;;;;5081631;28;20056;-67
2022/10/09 10:22:45;;;;;;;11.35;3.50;;;;;;;;;;5083027;28;20510;-67
2022/10/09 10:25:14;;;;;;;5.57;3.30;;;;;;;;;;5081188;28;20111;-66
2022/10/09 10:27:42;;;;;;;9.45;3.55;;;;;;;;;;5065740;28;20059;-67
2022/10/09 10:30:14;;;;;;;11.45;3.38;;;;;;;;;;5066484;28;20045;-67
2022/10/09 10:32:46;;;;;;;6.50;3.70;;;;;;;;;;5070130;28;20483;-67
2022/10/09 10:35:21;;;;;;;10.70;3.47;;;;;;;;;;5077897;28;20044;-67
2022/10/09 10:38:06;;;;;;;6.35;3.30;;;;;;;;;;5083254;28;20274;-67
2022/10/09 10:40:35;;;;;;;10.25;3.22;;;;;;;;;;5082864;28;20052;-67
2022/10/09 10:43:01;;;;;;;7.40;3.13;;;;;;;;;;5077076;28;20547;-67
2022/10/09 10:45:30;;;;;;;7.65;3.45;;;;;;;;;;5064486;28;20060;-67
2022/10/09 10:47:58;;;;;;;6.47;3.10;;;;;;;;;;5077149;28;20057;-68
2022/10/09 10:50:27;;;;;;;12.65;3.63;;;;;;;;;;5062972;28;20057;-67
2022/10/09 10:53:00;;;;;;;6.95;3.35;;;;;;;;;;5061334;28;20056;-67
2022/10/09 10:55:34;;;;;;;8.90;4.07;;;;;;;;;;5065501;28;20045;-67
2022/10/09 10:58:08;;;;;;;7.28;3.95;;;;;;;;;;5063117;28;20060;-68
2022/10/09 11:00:37;;;;;;;11.57;4.43;;;;;;;;;;5066052;28;20530;-66
2022/10/09 11:03:30;;;;;;;6.90;4.68;;;;;;;;;;5080843;28;20106;-67
2022/10/09 11:06:11;;;;;;;10.02;3.78;;;;;;;;;;5077769;28;20048;-67
2022/10/09 11:08:43;;;;;;;8.05;3.35;;;;;;;;;;5081519;28;20048;-67
2022/10/09 11:11:21;;;;;;;9.40;3.50;;;;;;;;;;5080544;28;20068;-66
2022/10/09 11:13:54;;;;;;;8.82;2.20;;;;;;;;;;5066756;28;20052;-66
2022/10/09 11:16:21;;;;;;;6.65;2.78;;;;;;;;;;5069232;28;20146;-66
2022/10/09 11:18:59;;;;;;;9.55;2.28;;;;;;;;;;5083906;28;20132;-67
2022/10/09 11:21:31;;;;;;;5.82;2.40;;;;;;;;;;5076837;28;20060;-66
2022/10/09 11:24:00;;;;;;;9.85;3.03;;;;;;;;;;5064257;28;20048;-67
2022/10/09 11:26:31;;;;;;;11.27;2.70;;;;;;;;;;5082025;28;20117;-67
2022/10/09 11:29:07;;;;;;;9.20;3.15;;;;;;;;;;5083768;28;20055;-67
2022/10/09 11:31:38;;;;;;;3.60;2.60;;;;;;;;;;5082696;28;20044;-67
2022/10/09 11:34:08;;;;;;;5.93;3.15;;;;;;;;;;5071015;28;20049;-67
2022/10/09 11:36:39;;;;;;;7.70;2.88;;;;;;;;;;5069561;28;20080;-66
2022/10/09 11:39:14;;;;;;;5.03;3.08;;;;;;;;;;5042363;28;20049;-67
2022/10/09 11:41:41;;;;;;;7.15;2.63;;;;;;;;;;5051514;28;20083;-67
2022/10/09 11:44:23;;;;;;;6.10;2.90;;;;;;;;;;5066099;28;20060;-67
2022/10/09 11:47:00;;;;;;;8.05;3.38;;;;;;;;;;5068319;28;20045;-67
2022/10/09 11:49:39;;;;;;;9.10;2.55;;;;;;;;;;5081191;28;20044;-67
2022/10/09 11:52:05;;;;;;;9.10;2.65;;;;;;;;;;5041606;28;20053;-67
2022/10/09 11:54:32;;;;;;;6.70;2.72;;;;;;;;;;5061965;28;20051;-67
2022/10/09 11:56:59;;;;;;;6.78;2.72;;;;;;;;;;5064525;28;20080;-67
2022/10/09 11:59:32;;;;;;;8.88;2.90;;;;;;;;;;5064148;28;20963;-67
2022/10/09 12:02:00;;;;;;;4.07;2.28;;;;;;;;;;5066036;28;20082;-67
2022/10/09 12:04:31;;;;;;;6.93;3.42;;;;;;;;;;5067518;28;20079;-68
2022/10/09 12:07:26;;;;;;;10.30;3.53;;;;;;;;;;5078681;28;20802;-67
2022/10/09 12:09:56;;;;;;;9.20;3.30;;;;;;;;;;5061935;28;20052;-67
2022/10/09 12:12:23;;;;;;;6.50;2.50;;;;;;;;;;5065221;28;20144;-67
2022/10/09 12:14:50;;;;;;;8.45;3.03;;;;;;;;;;5068302;28;20056;-67
2022/10/09 12:17:20;;;;;;;15.27;3.97;;;;;;;;;;5061361;28;20087;-67
2022/10/09 12:19:48;;;;;;;9.90;3.28;;;;;;;;;;5067373;28;20065;-67
2022/10/09 12:22:44;;;;;;;5.60;2.60;;;;;;;;;;5075250;28;20613;-67
2022/10/09 12:25:39;;;;;;;6.30;2.60;;;;;;;;;;5055755;28;20162;-67
2022/10/09 12:28:12;;;;;;;5.27;2.50;;;;;;;;;;5053661;28;20059;-67
2022/10/09 12:30:40;;;;;;;6.53;2.47;;;;;;;;;;5077043;28;20104;-67
2022/10/09 12:33:24;;;;;;;5.07;2.00;;;;;;;;;;5072752;28;20053;-67
2022/10/09 12:35:58;;;;;;;4.68;2.05;;;;;;;;;;5064521;28;20055;-67
2022/10/09 12:38:26;;;;;;;6.05;1.83;;;;;;;;;;5081197;28;20092;-68
2022/10/09 12:40:54;;;;;;;3.25;2.17;;;;;;;;;;5071908;28;20041;-67
2022/10/09 12:43:22;;;;;;;4.15;2.65;;;;;;;;;;5066158;28;20045;-68
2022/10/09 12:45:49;;;;;;;5.30;2.47;;;;;;;;;;5067319;28;20541;-67
2022/10/09 12:48:18;;;;;;;6.18;2.80;;;;;;;;;;5057640;28;20052;-68
2022/10/09 12:50:44;;;;;;;6.50;2.60;;;;;;;;;;5064187;28;20826;-67
2022/10/09 12:53:15;;;;;;;5.93;2.10;;;;;;;;;;5067829;28;20060;-67
2022/10/09 12:55:49;;;;;;;4.95;2.60;;;;;;;;;;5066191;28;20045;-67
2022/10/09 12:58:15;;;;;;;6.95;2.53;;;;;;;;;;5076215;28;20056;-66
2022/10/09 13:00:42;;;;;;;4.68;2.30;;;;;;;;;;5058606;28;20061;-69
2022/10/09 13:03:37;;;;;;;4.50;2.28;;;;;;;;;;5052455;28;20053;-70
2022/10/09 13:06:11;;;;;;;7.03;3.00;;;;;;;;;;5057288;28;20048;-69
2022/10/09 13:08:38;;;;;;;9.40;2.58;;;;;;;;;;5059199;28;20048;-68
2022/10/09 13:11:19;;;;;;;6.45;2.70;;;;;;;;;;5055090;28;20060;-68
2022/10/09 13:13:50;;;;;;;7.13;2.85;;;;;;;;;;5059943;28;20052;-68
2022/10/09 13:16:16;;;;;;;5.80;2.55;;;;;;;;;;5060167;28;20491;-68
2022/10/09 13:18:54;;;;;;;6.20;3.38;;;;;;;;;;5060052;28;20068;-68
2022/10/09 13:21:27;;;;;;;11.95;3.53;;;;;;;;;;5061027;28;20844;-68
2022/10/09 13:24:06;;;;;;;5.70;2.75;;;;;;;;;;5058213;28;20049;-68
2022/10/09 13:26:32;;;;;;;6.70;2.80;;;;;;;;;;5062063;28;20585;-68
2022/10/09 13:29:01;;;;;;;5.50;2.40;;;;;;;;;;5061744;28;20045;-68
2022/10/09 13:31:27;;;;;;;5.55;3.00;;;;;;;;;;5065411;28;20507;-68
2022/10/09 13:33:54;;;;;;;10.25;4.18;;;;;;;;;;5062750;28;20517;-68
2022/10/09 13:36:20;;;;;;;8.85;3.85;;;;;;;;;;5064966;28;20126;-68
2022/10/09 13:38:48;;;;;;;8.45;3.30;;;;;;;;;;5065450;28;20056;-68
2022/10/09 13:41:16;;;;;;;6.32;3.95;;;;;;;;;;5063481;28;20049;-68
2022/10/09 13:43:42;;;;;;;7.10;3.47;;;;;;;;;;5063890;28;20052;-68
2022/10/09 13:46:09;;;;;;;7.93;3.35;;;;;;;;;;5062464;28;20049;-69
2022/10/09 13:48:36;;;;;;;18.38;8.05;;;;;;;;;;5063079;28;20128;-67
2022/10/09 13:51:05;;;;;;;7.32;3.42;;;;;;;;;;5063474;28;20513;-68
2022/10/09 13:53:32;;;;;;;8.82;4.05;;;;;;;;;;5064946;28;20993;-67
2022/10/09 13:55:58;;;;;;;7.63;3.08;;;;;;;;;;5062990;28;20052;-67
2022/10/09 13:58:26;;;;;;;14.13;2.88;;;;;;;;;;5064808;28;20111;-68
2022/10/09 14:00:53;;;;;;;6.70;3.00;;;;;;;;;;5063749;28;20847;-67
2022/10/09 14:03:19;;;;;;;5.10;2.78;;;;;;;;;;5062641;28;20843;-69
2022/10/09 14:05:45;;;;;;;7.40;2.75;;;;;;;;;;5062163;28;20503;-68
2022/10/09 14:08:12;;;;;;;4.80;2.90;;;;;;;;;;5061395;28;20049;-68
2022/10/09 14:10:42;;;;;;;7.35;3.08;;;;;;;;;;5060733;28;20068;-68
2022/10/09 14:13:09;;;;;;;8.77;3.08;;;;;;;;;;5064418;28;20528;-68
2022/10/09 14:15:39;;;;;;;7.75;3.10;;;;;;;;;;5064625;28;20049;-68
2022/10/09 14:18:05;;;;;;;11.57;4.47;;;;;;;;;;5062897;28;20052;-68
2022/10/09 14:20:32;;;;;;;12.23;5.78;;;;;;;;;;5060300;28;20597;-69
2022/10/09 14:22:58;;;;;;;9.85;5.22;;;;;;;;;;5063695;28;20052;-69
2022/10/09 14:25:25;;;;;;;16.70;8.40;;;;;;;;;;5062776;28;20430;-68
2022/10/09 14:27:51;;;;;;;28.23;19.60;;;;;;;;;;5064081;28;20049;-69
2022/10/09 14:30:18;;;;;;;10.48;6.00;;;;;;;;;;5061160;28;20099;-66
2022/10/09 14:32:44;;;;;;;17.30;8.82;;;;;;;;;;5061810;28;20537;-68
2022/10/09 14:35:10;;;;;;;34.65;14.13;;;;;;;;;;5061618;28;20049;-68
2022/10/09 14:37:38;;;;;;;43.58;19.90;;;;;;;;;;5064500;28;20064;-68
2022/10/09 14:40:08;;;;;;;33.20;11.93;;;;;;;;;;5061165;28;20056;-68
2022/10/09 14:42:35;;;;;;;15.68;6.95;;;;;;;;;;5062102;28;20052;-68
2022/10/09 14:45:01;;;;;;;10.98;4.07;;;;;;;;;;5061880;28;20490;-68
2022/10/09 14:47:27;;;;;;;8.80;3.72;;;;;;;;;;5063408;28;20534;-67
2022/10/09 14:49:54;;;;;;;11.65;4.88;;;;;;;;;;5064121;28;20578;-67